KBOI METAR and TAF | Updated Today

KBOI METAR

Boise Air Terminal/Gowen Field

Observation time: 29 min. ago

KBOI 261253Z 13008KT 10SM CLR 15/06 A3021 RMK AO2 SLP205 T01500056

Need help? Read our tutorial on how to read METARs or read the parsed version below.

Boise Air Terminal/Gowen Field (KBOI) METAR

  • Weather conditions on Sun, 26 Jun 2022 12:53:00 +0000 (29 min. ago):
  • Present conditions: Dry
  • Clouds: Clear skies
  • Visibility: 16093 meters
  • Wind: 130 degrees at 8 knots
  • Temperature: 15 celsius
  • Dew point: 6 celsius
  • Pressure: 30.21 inHg
  • Remarks: AO2 SLP205 T01500056


Useful to know...

KBOI TAF

Boise Air Terminal/Gowen Field

KBOI 261120Z 2612/2712 14006KT P6SM SKC FM262000 VRB05KT P6SM SKC
Observation time: 2:02 hr. ago
Need help? Read our tutorial on how to read TAFs or read the parsed version below.

Parsed version of TAF for Boise Air Terminal/Gowen Field (KBOI)

  • From 26 June at 12:00 UTC, to day 27 of the month at 12:00 UTC
  • Clouds: No significant changes expected
  • Wind: 140 degrees at 6
  • From day 26 of the month at 20:00 UTC
  • Clouds: No significant changes expected
  • Wind: Variable at 5